createdAt,value
2023-04-21T00:00:26.982Z,12.00
2023-04-21T00:02:30.779Z,12.10
2023-04-21T00:04:34.519Z,12.20
2023-04-21T00:06:41.855Z,12.20
2023-04-21T00:08:45.189Z,12.20
2023-04-21T00:10:48.604Z,12.20
2023-04-21T00:12:52.303Z,12.10
2023-04-21T00:15:26.038Z,12.10
2023-04-21T00:17:29.615Z,12.10
2023-04-21T00:19:33.877Z,12.00
2023-04-21T00:21:38.681Z,12.10
2023-04-21T00:23:42.251Z,12.10
2023-04-21T00:25:45.819Z,12.20
2023-04-21T00:27:49.319Z,12.20
2023-04-21T00:29:52.706Z,12.20
2023-04-21T00:32:02.318Z,12.10
2023-04-21T00:34:05.808Z,12.20
2023-04-21T00:36:09.214Z,12.20
2023-04-21T00:38:14.177Z,12.20
2023-04-21T00:40:17.860Z,12.20
2023-04-21T00:42:22.298Z,12.20
2023-04-21T00:44:29.118Z,12.10
2023-04-21T00:46:32.625Z,12.10
2023-04-21T00:48:36.434Z,12.10
2023-04-21T00:50:39.845Z,12.00
2023-04-21T00:52:43.965Z,12.00
2023-04-21T00:54:48.944Z,11.90
2023-04-21T00:56:52.359Z,11.80
2023-04-21T00:58:55.794Z,11.80
2023-04-21T01:00:59.512Z,11.70
2023-04-21T01:03:03.472Z,11.60
2023-04-21T01:05:50.238Z,11.50
2023-04-21T01:07:53.994Z,11.50
2023-04-21T01:09:59.999Z,11.50
2023-04-21T01:12:04.595Z,11.50
2023-04-21T01:14:08.004Z,11.50
2023-04-21T01:16:17.928Z,11.40
2023-04-21T01:18:22.590Z,11.30
2023-04-21T01:20:26.690Z,11.20
2023-04-21T01:22:42.908Z,11.20
2023-04-21T01:24:47.322Z,11.20
2023-04-21T01:26:50.817Z,11.10
2023-04-21T01:28:54.437Z,11.10
2023-04-21T01:30:57.902Z,11.10
2023-04-21T01:33:01.292Z,11.00
2023-04-21T01:35:06.747Z,11.00
2023-04-21T01:37:10.573Z,10.90
2023-04-21T01:40:38.775Z,10.90
2023-04-21T01:42:44.462Z,10.90
2023-04-21T01:44:49.701Z,10.90
2023-04-21T01:46:53.466Z,10.80
2023-04-21T01:48:56.874Z,10.70
2023-04-21T01:51:00.504Z,10.70
2023-04-21T01:53:39.999Z,10.70
2023-04-21T01:55:43.500Z,10.70
2023-04-21T01:57:48.414Z,10.70
2023-04-21T01:59:51.794Z,10.70
2023-04-21T02:01:55.508Z,10.70
2023-04-21T02:04:05.079Z,10.70
2023-04-21T02:06:09.180Z,10.70
2023-04-21T02:08:12.949Z,10.70
2023-04-21T02:10:16.794Z,10.80
2023-04-21T02:12:20.428Z,10.80
2023-04-21T02:14:25.711Z,10.90
2023-04-21T02:16:29.248Z,10.90
2023-04-21T02:18:32.861Z,10.90
2023-04-21T02:24:57.459Z,10.90
2023-04-21T02:27:02.235Z,10.90
2023-04-21T02:29:05.761Z,10.90
2023-04-21T02:31:10.669Z,11.00
2023-04-21T02:34:30.824Z,10.90
2023-04-21T02:36:34.599Z,10.90
2023-04-21T02:38:38.104Z,10.90
2023-04-21T02:40:46.894Z,10.90
2023-04-21T02:42:50.752Z,10.90
2023-04-21T02:44:54.246Z,10.90
2023-04-21T02:46:59.166Z,10.90
2023-04-21T02:49:03.487Z,10.90
2023-04-21T02:52:03.886Z,10.90
2023-04-21T02:54:07.411Z,10.90
2023-04-21T02:56:10.955Z,10.90
2023-04-21T02:58:14.494Z,10.90
2023-04-21T03:00:18.457Z,10.90
2023-04-21T03:02:23.470Z,10.90
2023-04-21T03:04:27.313Z,10.90
2023-04-21T03:07:32.669Z,10.90
2023-04-21T03:09:36.767Z,10.90
2023-04-21T03:11:40.206Z,11.00
2023-04-21T03:13:43.753Z,11.00
2023-04-21T03:16:36.668Z,10.90
2023-04-21T03:18:41.529Z,11.00
2023-04-21T03:20:45.062Z,11.00
2023-04-21T03:22:48.483Z,11.00
2023-04-21T03:24:51.940Z,11.00
2023-04-21T03:26:57.295Z,11.00
2023-04-21T03:29:10.425Z,10.90
2023-04-21T03:31:13.939Z,10.90
2023-04-21T03:33:17.395Z,10.90
2023-04-21T03:35:22.390Z,10.90
2023-04-21T03:37:26.077Z,11.00
2023-04-21T03:39:29.694Z,11.00
2023-04-21T03:41:33.101Z,11.00
2023-04-21T03:43:37.491Z,11.00
2023-04-21T03:45:41.407Z,11.00
2023-04-21T03:47:45.517Z,11.00
2023-04-21T03:50:47.986Z,11.00
2023-04-21T03:52:53.262Z,11.00
2023-04-21T03:54:56.972Z,10.90
2023-04-21T03:57:00.622Z,10.90
2023-04-21T03:59:04.129Z,10.90
2023-04-21T04:01:08.071Z,10.90
2023-04-21T04:03:11.763Z,10.90
2023-04-21T04:06:05.236Z,10.90
2023-04-21T04:08:10.330Z,10.90
2023-04-21T04:10:14.245Z,10.90
2023-04-21T04:12:18.131Z,10.90
2023-04-21T04:14:21.859Z,10.90
2023-04-21T04:16:25.793Z,10.90
2023-04-21T04:18:47.383Z,10.90
2023-04-21T04:20:51.298Z,10.90
2023-04-21T04:22:55.410Z,10.90
2023-04-21T04:25:01.739Z,10.90
2023-04-21T04:27:06.104Z,10.90
2023-04-21T04:29:11.088Z,10.90
2023-04-21T04:31:15.287Z,10.90
2023-04-21T04:33:18.778Z,10.90
2023-04-21T04:35:22.585Z,11.00
2023-04-21T04:37:26.776Z,11.00
2023-04-21T04:39:30.409Z,11.00
2023-04-21T04:41:36.573Z,11.10
2023-04-21T04:43:40.528Z,11.10
2023-04-21T04:45:44.138Z,11.10
2023-04-21T04:47:47.544Z,11.20
2023-04-21T04:50:01.429Z,11.20
2023-04-21T04:52:05.224Z,11.20
2023-04-21T04:54:08.726Z,11.20
2023-04-21T04:56:12.297Z,11.20
2023-04-21T04:58:17.403Z,11.20
2023-04-21T05:00:21.848Z,11.20
2023-04-21T05:02:59.202Z,11.30
2023-04-21T05:05:02.914Z,11.30
2023-04-21T05:07:07.981Z,11.30
2023-04-21T05:09:12.602Z,11.40
2023-04-21T05:11:16.117Z,11.40
2023-04-21T05:13:21.096Z,11.50
2023-04-21T05:19:26.308Z,11.60
2023-04-21T05:21:29.980Z,11.60
2023-04-21T05:23:33.622Z,11.70
2023-04-21T05:25:38.790Z,11.70
2023-04-21T05:28:11.389Z,11.80
2023-04-21T05:30:16.585Z,11.80
2023-04-21T05:32:20.717Z,11.90
2023-04-21T05:34:24.324Z,11.90
2023-04-21T05:36:30.791Z,11.90
2023-04-21T05:38:34.674Z,11.90
2023-04-21T05:40:38.286Z,11.90
2023-04-21T05:42:42.072Z,11.90
2023-04-21T05:44:50.971Z,11.90
2023-04-21T05:46:56.230Z,12.00
2023-04-21T05:49:00.128Z,12.00
2023-04-21T05:51:10.700Z,12.10
2023-04-21T05:53:14.228Z,12.10
2023-04-21T05:55:25.252Z,12.10
2023-04-21T05:57:28.853Z,12.10
2023-04-21T05:59:32.283Z,12.00
2023-04-21T06:01:36.163Z,12.00
2023-04-21T06:04:09.594Z,12.10
2023-04-21T06:06:15.094Z,12.20
2023-04-21T06:08:18.703Z,12.30
2023-04-21T06:10:23.052Z,12.40
2023-04-21T06:12:26.921Z,12.60
2023-04-21T06:14:30.787Z,12.60
2023-04-21T06:16:46.532Z,12.80
2023-04-21T06:18:50.501Z,12.90
2023-04-21T06:20:56.186Z,13.00
2023-04-21T06:23:00.582Z,13.10
2023-04-21T06:25:04.408Z,13.20
2023-04-21T06:27:13.288Z,13.30
2023-04-21T06:29:17.247Z,13.40
2023-04-21T06:31:20.743Z,13.50
2023-04-21T06:34:21.986Z,13.60
2023-04-21T06:36:27.894Z,13.60
2023-04-21T06:38:31.720Z,13.70
2023-04-21T06:40:36.362Z,13.80
2023-04-21T06:42:40.067Z,13.90
2023-04-21T06:44:47.802Z,14.10
2023-04-21T06:46:52.861Z,14.20
2023-04-21T06:48:56.421Z,14.30
2023-04-21T06:51:00.748Z,14.30
2023-04-21T06:53:09.763Z,14.30
2023-04-21T06:55:13.719Z,14.30
2023-04-21T06:57:29.476Z,14.50
2023-04-21T06:59:33.336Z,14.50
2023-04-21T07:01:37.242Z,14.70
2023-04-21T07:03:41.401Z,14.70
2023-04-21T07:05:45.285Z,14.90
2023-04-21T07:08:17.191Z,15.10
2023-04-21T07:10:20.783Z,15.20
2023-04-21T07:12:24.384Z,15.30
2023-04-21T07:14:27.805Z,15.40
2023-04-21T07:16:31.439Z,15.50
2023-04-21T07:18:35.808Z,15.80
2023-04-21T07:20:40.040Z,16.00
2023-04-21T07:22:43.562Z,16.20
2023-04-21T07:24:49.499Z,16.30
2023-04-21T07:26:53.387Z,16.40
2023-04-21T07:29:02.408Z,16.40
2023-04-21T07:31:06.402Z,16.40
2023-04-21T07:33:10.339Z,16.50
2023-04-21T07:35:13.787Z,16.60
2023-04-21T07:37:17.899Z,16.60
2023-04-21T07:39:21.682Z,16.60
2023-04-21T07:41:27.192Z,16.40
2023-04-21T07:43:31.432Z,16.30
2023-04-21T07:45:35.537Z,16.10
2023-04-21T07:47:39.443Z,16.00
2023-04-21T07:49:42.996Z,16.20
2023-04-21T07:51:46.715Z,16.30
2023-04-21T07:53:50.775Z,16.50
2023-04-21T07:56:07.674Z,16.60
2023-04-21T07:58:14.747Z,16.80
2023-04-21T08:00:19.155Z,16.80
2023-04-21T08:02:23.698Z,16.80
2023-04-21T08:04:29.256Z,16.70
2023-04-21T08:06:33.650Z,16.60
2023-04-21T08:08:37.677Z,16.50
2023-04-21T08:10:41.675Z,16.30
2023-04-21T08:12:45.412Z,16.20
2023-04-21T08:14:52.498Z,16.10
2023-04-21T08:16:57.314Z,16.10
2023-04-21T08:19:01.349Z,16.10
2023-04-21T08:21:05.348Z,16.10
2023-04-21T08:23:09.234Z,16.20
2023-04-21T08:25:18.617Z,16.40
2023-04-21T08:27:22.449Z,16.70
2023-04-21T08:29:26.150Z,17.00
2023-04-21T08:31:31.535Z,17.30
2023-04-21T08:33:36.373Z,17.50
2023-04-21T08:35:54.903Z,17.70
2023-04-21T08:38:06.711Z,17.70
2023-04-21T08:40:11.521Z,17.70
2023-04-21T08:42:15.595Z,17.70
2023-04-21T08:44:19.596Z,17.70
2023-04-21T08:46:23.805Z,17.80
2023-04-21T08:48:28.987Z,17.90
2023-04-21T08:50:33.144Z,17.90
2023-04-21T08:52:39.054Z,17.90
2023-04-21T08:54:42.691Z,18.20
2023-04-21T08:56:46.328Z,18.40
2023-04-21T08:58:50.246Z,18.60
2023-04-21T09:00:54.126Z,18.90
2023-04-21T09:03:02.153Z,19.10
2023-04-21T09:05:08.618Z,19.20
2023-04-21T09:07:13.098Z,19.30
2023-04-21T09:09:16.841Z,19.40
2023-04-21T09:11:20.979Z,19.70
2023-04-21T09:13:31.324Z,19.90
2023-04-21T09:15:40.044Z,20.10
2023-04-21T09:17:43.635Z,20.10
2023-04-21T09:19:47.773Z,20.00
2023-04-21T09:21:52.689Z,19.90
2023-04-21T09:23:57.330Z,19.90
2023-04-21T09:26:01.057Z,19.90
2023-04-21T09:28:05.097Z,19.70
2023-04-21T09:30:09.549Z,19.60
2023-04-21T09:32:13.955Z,19.50
2023-04-21T09:34:21.329Z,19.40
2023-04-21T09:36:26.419Z,19.20
2023-04-21T09:38:33.872Z,19.20
2023-04-21T09:40:37.676Z,18.90
2023-04-21T09:42:43.956Z,18.60
2023-04-21T09:44:56.206Z,18.20
2023-04-21T09:47:03.339Z,18.00
2023-04-21T09:49:07.377Z,17.90
2023-04-21T09:51:32.353Z,18.10
2023-04-21T09:53:35.765Z,18.40
2023-04-21T09:55:39.517Z,18.50
2023-04-21T09:57:43.847Z,18.30
2023-04-21T09:59:48.024Z,18.10
2023-04-21T10:01:52.051Z,18.10
2023-04-21T10:03:55.830Z,18.10
2023-04-21T10:05:59.970Z,18.30
2023-04-21T10:08:05.941Z,18.40
2023-04-21T10:10:14.010Z,18.40
2023-04-21T10:12:17.595Z,18.50
2023-04-21T10:14:21.422Z,18.40
2023-04-21T10:16:26.862Z,18.40
2023-04-21T10:18:31.076Z,18.50
2023-04-21T10:20:35.358Z,18.80
2023-04-21T10:22:40.079Z,19.10
2023-04-21T10:24:44.802Z,19.30
2023-04-21T10:26:51.474Z,19.50
2023-04-21T10:28:59.352Z,19.60
2023-04-21T10:31:18.391Z,19.70
2023-04-21T10:33:25.487Z,20.00
2023-04-21T10:35:57.091Z,20.50
2023-04-21T10:38:00.481Z,21.00
2023-04-21T10:40:10.617Z,21.50
2023-04-21T10:42:25.743Z,21.90
2023-04-21T10:44:30.992Z,22.40
2023-04-21T10:46:36.698Z,22.80
2023-04-21T10:48:40.392Z,22.90
2023-04-21T10:50:45.470Z,23.00
2023-04-21T10:52:55.191Z,23.00
2023-04-21T10:55:10.886Z,22.90
2023-04-21T10:57:15.399Z,22.90
2023-04-21T10:59:20.947Z,22.80
2023-04-21T11:01:25.037Z,22.60
2023-04-21T11:03:36.878Z,22.70
2023-04-21T11:05:41.570Z,22.80
2023-04-21T11:07:46.189Z,22.90
2023-04-21T11:09:51.408Z,23.00
2023-04-21T11:12:00.539Z,23.00
2023-04-21T11:14:04.600Z,22.60
2023-04-21T11:16:10.222Z,22.50
2023-04-21T11:18:13.994Z,22.30
2023-04-21T11:20:18.740Z,22.10
2023-04-21T11:22:23.279Z,21.90
2023-04-21T11:24:26.924Z,21.60
2023-04-21T11:26:34.444Z,21.40
2023-04-21T11:28:38.321Z,21.40
2023-04-21T11:30:42.248Z,21.40
2023-04-21T11:32:48.519Z,21.60
2023-04-21T11:34:52.756Z,21.80
2023-04-21T11:36:56.509Z,22.00
2023-04-21T11:39:00.104Z,22.10
2023-04-21T11:41:03.769Z,22.10
2023-04-21T11:43:07.719Z,21.80
2023-04-21T11:45:19.903Z,21.50
2023-04-21T11:47:26.242Z,21.30
2023-04-21T11:49:32.663Z,21.00
2023-04-21T11:51:36.764Z,20.80
2023-04-21T11:53:40.247Z,20.90
2023-04-21T11:55:45.227Z,21.00
2023-04-21T11:57:49.069Z,21.00
2023-04-21T11:59:52.889Z,21.20
2023-04-21T12:01:57.448Z,21.30
2023-04-21T12:04:01.830Z,21.40
2023-04-21T12:06:08.049Z,21.20
2023-04-21T12:08:16.277Z,21.10
2023-04-21T12:10:20.615Z,21.10
2023-04-21T12:12:25.382Z,20.90
2023-04-21T12:14:29.119Z,21.00
2023-04-21T12:16:32.943Z,21.00
2023-04-21T12:18:37.787Z,21.20
2023-04-21T12:20:41.614Z,21.50
2023-04-21T12:22:47.011Z,21.70
2023-04-21T12:24:50.680Z,21.70
2023-04-21T12:26:54.384Z,21.50
2023-04-21T12:29:00.791Z,21.50
2023-04-21T12:31:04.333Z,21.60
2023-04-21T12:33:09.323Z,21.50
2023-04-21T12:35:13.340Z,21.50
2023-04-21T12:37:17.377Z,21.60
2023-04-21T12:39:22.920Z,21.70
2023-04-21T12:41:26.855Z,22.10
2023-04-21T12:43:32.349Z,22.50
2023-04-21T12:45:36.070Z,23.00
2023-04-21T12:47:40.125Z,23.40
2023-04-21T12:49:43.997Z,23.10
2023-04-21T12:51:47.673Z,23.00
2023-04-21T12:53:51.845Z,22.80
2023-04-21T12:56:04.004Z,22.80
2023-04-21T12:58:08.998Z,22.80
2023-04-21T13:00:15.121Z,22.90
2023-04-21T13:02:19.068Z,23.00
2023-04-21T13:04:23.771Z,23.00
2023-04-21T13:06:28.320Z,23.10
2023-04-21T13:08:31.874Z,23.20
2023-04-21T13:10:35.605Z,23.30
2023-04-21T13:12:41.728Z,23.60
2023-04-21T13:14:45.777Z,23.90
2023-04-21T13:16:49.683Z,24.10
2023-04-21T13:18:53.211Z,24.30
2023-04-21T13:20:56.797Z,24.30
2023-04-21T13:23:00.508Z,24.00
2023-04-21T13:25:04.859Z,24.10
2023-04-21T13:27:08.746Z,23.90
2023-04-21T13:29:13.949Z,23.90
2023-04-21T13:31:17.625Z,24.00
2023-04-21T13:33:22.628Z,24.20
2023-04-21T13:35:26.719Z,24.40
2023-04-21T13:37:30.308Z,24.50
2023-04-21T13:39:34.429Z,24.40
2023-04-21T13:41:38.528Z,24.20
2023-04-21T13:43:42.560Z,24.00
2023-04-21T13:45:50.019Z,23.40
2023-04-21T13:47:54.373Z,22.90
2023-04-21T13:49:58.117Z,23.00
2023-04-21T13:52:02.381Z,23.40
2023-04-21T13:54:06.534Z,23.70
2023-04-21T13:56:11.725Z,24.00
2023-04-21T13:58:16.087Z,24.40
2023-04-21T14:00:20.771Z,25.00
2023-04-21T14:02:26.709Z,25.60
2023-04-21T14:04:30.662Z,25.90
2023-04-21T14:06:34.525Z,25.80
2023-04-21T14:08:38.347Z,25.80
2023-04-21T14:10:42.025Z,25.80
2023-04-21T14:12:46.100Z,25.70
2023-04-21T14:14:50.005Z,25.80
2023-04-21T14:17:00.834Z,26.00
2023-04-21T14:19:10.445Z,26.30
2023-04-21T14:21:13.830Z,26.50
2023-04-21T14:23:17.819Z,27.00
2023-04-21T14:25:24.054Z,27.50
2023-04-21T14:27:27.826Z,27.90
2023-04-21T14:29:31.748Z,28.00
2023-04-21T14:31:36.017Z,28.20
2023-04-21T14:33:40.275Z,28.30
2023-04-21T14:35:46.794Z,28.60
2023-04-21T14:37:51.677Z,28.70
2023-04-21T14:39:57.057Z,28.80
2023-04-21T14:42:02.042Z,28.50
2023-04-21T14:44:06.148Z,28.50
2023-04-21T14:46:10.103Z,28.70
2023-04-21T14:48:14.565Z,29.00
2023-04-21T14:50:19.020Z,29.40
2023-04-21T14:52:27.113Z,29.70
2023-04-21T14:54:30.764Z,29.80
2023-04-21T14:56:34.839Z,29.80
2023-04-21T14:58:38.897Z,29.70
2023-04-21T15:00:42.580Z,29.60
2023-04-21T15:02:48.128Z,29.50
2023-04-21T15:04:52.212Z,29.50
2023-04-21T15:06:56.237Z,29.70
2023-04-21T15:09:01.392Z,29.90
2023-04-21T15:11:05.420Z,30.00
2023-04-21T15:13:09.631Z,29.60
2023-04-21T15:15:13.788Z,29.40
2023-04-21T15:17:17.580Z,29.40
2023-04-21T15:19:22.601Z,29.30
2023-04-21T15:21:28.881Z,29.30
2023-04-21T15:23:33.950Z,29.40
2023-04-21T15:25:39.923Z,29.50
2023-04-21T15:27:43.827Z,29.50
2023-04-21T15:29:47.937Z,29.50
2023-04-21T15:31:51.570Z,29.60
2023-04-21T15:33:55.950Z,29.70
2023-04-21T15:35:59.780Z,29.70
2023-04-21T15:38:03.883Z,29.40
2023-04-21T15:40:09.864Z,29.20
2023-04-21T15:42:15.756Z,29.10
2023-04-21T15:44:19.630Z,29.30
2023-04-21T15:46:23.471Z,29.50
2023-04-21T15:48:27.559Z,29.70
2023-04-21T15:50:31.775Z,30.00
2023-04-21T15:52:35.456Z,30.30
2023-04-21T15:54:39.516Z,30.50
2023-04-21T15:56:43.703Z,30.40
2023-04-21T15:58:49.401Z,30.40
2023-04-21T16:00:53.155Z,30.60
2023-04-21T16:02:57.799Z,30.90
2023-04-21T16:05:02.463Z,30.90
2023-04-21T16:07:06.876Z,30.80
2023-04-21T16:09:11.304Z,30.90
2023-04-21T16:11:15.072Z,30.90
2023-04-21T16:13:19.280Z,31.00
2023-04-21T16:15:25.149Z,31.20
2023-04-21T16:17:28.948Z,31.40
2023-04-21T16:19:33.622Z,31.70
2023-04-21T16:21:37.360Z,32.00
2023-04-21T16:23:41.441Z,32.10
2023-04-21T16:25:45.471Z,32.00
2023-04-21T16:27:49.272Z,31.90
2023-04-21T16:29:53.261Z,31.60
2023-04-21T16:31:58.716Z,31.50
2023-04-21T16:34:02.894Z,31.40
2023-04-21T16:36:06.947Z,31.30
2023-04-21T16:38:10.359Z,31.20
2023-04-21T16:40:14.342Z,31.20
2023-04-21T16:42:18.100Z,31.20
2023-04-21T16:44:22.098Z,31.30
2023-04-21T16:46:27.055Z,31.30
2023-04-21T16:48:32.438Z,31.00
2023-04-21T16:50:36.324Z,30.80
2023-04-21T16:52:39.956Z,30.90
2023-04-21T16:54:43.428Z,30.90
2023-04-21T16:56:47.407Z,30.80
2023-04-21T16:58:50.938Z,30.70
2023-04-21T17:00:54.599Z,30.50
2023-04-21T17:02:58.383Z,30.40
2023-04-21T17:05:04.357Z,30.30
2023-04-21T17:07:09.417Z,30.30
2023-04-21T17:09:13.169Z,30.20
2023-04-21T17:11:16.726Z,30.30
2023-04-21T17:13:20.203Z,30.20
2023-04-21T17:15:23.765Z,30.10
2023-04-21T17:17:27.503Z,30.00
2023-04-21T17:19:31.254Z,29.70
2023-04-21T17:21:36.570Z,29.10
2023-04-21T17:23:41.075Z,28.30
2023-04-21T17:25:44.792Z,27.50
2023-04-21T17:27:48.178Z,26.80
2023-04-21T17:29:51.939Z,26.30
2023-04-21T17:31:55.603Z,25.90
2023-04-21T17:33:59.171Z,25.50
2023-04-21T17:36:03.715Z,25.30
2023-04-21T17:38:09.082Z,25.00
2023-04-21T17:40:13.168Z,24.70
2023-04-21T17:42:16.749Z,24.40
2023-04-21T17:44:20.261Z,24.20
2023-04-21T17:46:25.399Z,24.00
2023-04-21T17:48:29.291Z,23.90
2023-04-21T17:50:32.999Z,23.80
2023-04-21T17:52:37.009Z,23.60
2023-04-21T17:54:42.090Z,23.50
2023-04-21T17:56:46.954Z,23.50
2023-04-21T17:58:50.988Z,23.40
2023-04-21T18:00:54.611Z,23.30
2023-04-21T18:02:58.666Z,23.20
2023-04-21T18:05:02.480Z,23.20
2023-04-21T18:07:06.547Z,23.10
2023-04-21T18:09:10.089Z,23.10
2023-04-21T18:11:15.120Z,22.90
2023-04-21T18:13:18.652Z,22.80
2023-04-21T18:15:22.506Z,22.70
2023-04-21T18:17:27.982Z,22.50
2023-04-21T18:19:31.873Z,22.10
2023-04-21T18:21:35.797Z,21.80
2023-04-21T18:23:40.277Z,21.40
2023-04-21T18:25:43.963Z,21.00
2023-04-21T18:27:50.083Z,20.50
2023-04-21T18:29:53.735Z,20.10
2023-04-21T18:31:57.759Z,19.80
2023-04-21T18:34:01.792Z,19.60
2023-04-21T18:36:06.786Z,19.40
2023-04-21T18:38:11.959Z,19.30
2023-04-21T18:40:16.038Z,19.30
2023-04-21T18:42:19.644Z,19.30
2023-04-21T18:44:24.747Z,19.20
2023-04-21T18:46:28.867Z,19.20
2023-04-21T18:48:32.841Z,19.10
2023-04-21T18:50:40.525Z,19.10
2023-04-21T18:52:44.824Z,19.10
2023-04-21T18:54:48.466Z,19.10
2023-04-21T18:56:52.069Z,19.00
2023-04-21T18:58:55.939Z,18.90
2023-04-21T19:01:01.030Z,18.90
2023-04-21T19:03:05.458Z,18.90
2023-04-21T19:05:10.462Z,18.90
2023-04-21T19:07:15.791Z,18.90
2023-04-21T19:09:19.363Z,18.90
2023-04-21T19:11:23.011Z,19.00
2023-04-21T19:13:26.582Z,19.00
2023-04-21T19:15:30.545Z,19.10
2023-04-21T19:17:35.758Z,19.10
2023-04-21T19:19:39.363Z,19.20
2023-04-21T19:21:43.219Z,19.20
2023-04-21T19:23:46.680Z,19.20
2023-04-21T19:25:54.640Z,19.20
2023-04-21T19:27:58.172Z,19.20
2023-04-21T19:30:01.927Z,19.20
2023-04-21T19:32:05.661Z,19.10
2023-04-21T19:34:10.949Z,19.20
2023-04-21T19:36:14.816Z,19.30
2023-04-21T19:38:18.472Z,19.30
2023-04-21T19:40:22.350Z,19.30
2023-04-21T19:42:26.194Z,19.40
2023-04-21T19:44:29.727Z,19.50
2023-04-21T19:46:33.927Z,19.50
2023-04-21T19:48:38.891Z,19.60
2023-04-21T19:50:45.164Z,19.60
2023-04-21T19:52:48.814Z,19.70
2023-04-21T19:54:52.305Z,19.70
2023-04-21T19:56:56.420Z,19.70
2023-04-21T19:59:00.591Z,19.70
2023-04-21T20:01:05.180Z,19.70
2023-04-21T20:03:08.995Z,19.70
2023-04-21T20:05:13.307Z,19.80
2023-04-21T20:07:18.650Z,19.80
2023-04-21T20:09:22.265Z,19.80
2023-04-21T20:11:28.765Z,19.80
2023-04-21T20:13:32.809Z,19.80
2023-04-21T20:15:36.734Z,19.80
2023-04-21T20:17:41.740Z,19.80
2023-04-21T20:19:47.231Z,19.70
2023-04-21T20:21:51.232Z,19.60
2023-04-21T20:23:56.345Z,19.60
2023-04-21T20:26:00.498Z,19.40
2023-04-21T20:28:04.063Z,19.30
2023-04-21T20:30:09.209Z,19.20
2023-04-21T20:32:12.904Z,19.20
2023-04-21T20:34:16.396Z,19.10
2023-04-21T20:36:20.395Z,19.10
2023-04-21T20:38:25.197Z,19.00
2023-04-21T20:40:30.371Z,18.80
2023-04-21T20:42:33.911Z,18.70
2023-04-21T20:44:37.575Z,18.50
2023-04-21T20:46:41.522Z,18.30
2023-04-21T20:48:45.218Z,18.10
2023-04-21T20:50:51.219Z,18.00
2023-04-21T20:52:55.329Z,17.80
2023-04-21T20:54:58.884Z,17.60
2023-04-21T20:57:04.113Z,17.50
2023-04-21T20:59:07.627Z,17.50
2023-04-21T21:01:11.371Z,17.40
2023-04-21T21:03:17.548Z,17.30
2023-04-21T21:05:21.312Z,17.20
2023-04-21T21:07:24.784Z,17.20
2023-04-21T21:09:28.507Z,17.10
2023-04-21T21:11:32.181Z,17.10
2023-04-21T21:13:39.689Z,17.10
2023-04-21T21:15:43.456Z,17.20
2023-04-21T21:17:47.098Z,17.00
2023-04-21T21:19:50.743Z,16.90
2023-04-21T21:21:54.480Z,16.80
2023-04-21T21:23:58.394Z,16.80
2023-04-21T21:26:02.201Z,16.80
2023-04-21T21:28:06.174Z,16.80
2023-04-21T21:30:12.512Z,16.90
2023-04-21T21:32:16.541Z,16.80
2023-04-21T21:34:20.307Z,16.80
2023-04-21T21:36:23.946Z,16.80
2023-04-21T21:38:27.486Z,16.80
2023-04-21T21:40:31.352Z,16.80
2023-04-21T21:42:35.880Z,16.70
2023-04-21T21:44:39.809Z,16.60
2023-04-21T21:46:45.356Z,16.60
2023-04-21T21:48:49.053Z,16.60
2023-04-21T21:50:52.526Z,16.70
2023-04-21T21:52:56.232Z,16.70
2023-04-21T21:54:59.782Z,16.70
2023-04-21T21:57:04.394Z,16.70
2023-04-21T21:59:08.309Z,16.70
2023-04-21T22:01:12.124Z,16.70
2023-04-21T22:03:17.223Z,16.70
2023-04-21T22:05:21.589Z,16.60
2023-04-21T22:07:26.486Z,16.60
2023-04-21T22:09:30.132Z,16.60
2023-04-21T22:11:34.032Z,16.60
2023-04-21T22:13:37.545Z,16.60
2023-04-21T22:15:41.430Z,16.60
2023-04-21T22:17:47.483Z,16.60
2023-04-21T22:19:53.902Z,16.60
2023-04-21T22:21:57.699Z,16.60
2023-04-21T22:24:01.336Z,16.60
2023-04-21T22:26:04.885Z,16.60
2023-04-21T22:28:08.595Z,16.60
2023-04-21T22:30:12.792Z,16.50
2023-04-21T22:32:16.681Z,16.50
2023-04-21T22:34:23.949Z,16.50
2023-04-21T22:36:28.991Z,16.50
2023-04-21T22:38:32.607Z,16.40
2023-04-21T22:40:36.387Z,16.50
2023-04-21T22:42:40.073Z,16.40
2023-04-21T22:44:45.177Z,16.40
2023-04-21T22:46:48.751Z,16.40
2023-04-21T22:48:54.408Z,16.30
2023-04-21T22:50:58.047Z,16.30
2023-04-21T22:53:03.226Z,16.30
2023-04-21T22:55:07.392Z,16.30
2023-04-21T22:57:10.876Z,16.20
2023-04-21T22:59:14.339Z,16.20
2023-04-21T23:01:17.970Z,16.10
2023-04-21T23:03:21.745Z,16.10
2023-04-21T23:05:25.476Z,16.10
2023-04-21T23:07:29.085Z,16.10
2023-04-21T23:09:33.969Z,16.10
2023-04-21T23:11:37.603Z,16.20
2023-04-21T23:14:17.049Z,16.20
2023-04-21T23:16:20.590Z,16.30
2023-04-21T23:18:24.014Z,16.40
2023-04-21T23:20:27.560Z,16.40
2023-04-21T23:22:33.818Z,16.50
2023-04-21T23:24:38.646Z,16.60
2023-04-21T23:26:42.189Z,16.60
2023-04-21T23:28:45.586Z,16.60
2023-04-21T23:30:50.898Z,16.60
2023-04-21T23:32:54.368Z,16.70
2023-04-21T23:34:57.789Z,16.70
2023-04-21T23:37:01.324Z,16.70
2023-04-21T23:39:04.976Z,16.80
2023-04-21T23:41:10.090Z,16.80
2023-04-21T23:43:13.628Z,16.80
2023-04-21T23:45:17.593Z,16.70
2023-04-21T23:47:21.535Z,16.60
2023-04-21T23:49:24.911Z,16.60
2023-04-21T23:51:28.901Z,16.50
2023-04-21T23:53:32.306Z,16.50
2023-04-21T23:55:35.974Z,16.40
2023-04-21T23:57:40.965Z,16.40
2023-04-21T23:59:46.618Z,16.30
